sensor_id;sensor_type;location;lat;lon;timestamp;pressure;altitude;pressure_sealevel;temperature;humidity
11810;BME280;5962;41.566;23.734;2024-02-26T00:00:42;95040.94;;;9.69;100.00
11810;BME280;5962;41.566;23.734;2024-02-26T00:03:10;95047.44;;;9.61;100.00
11810;BME280;5962;41.566;23.734;2024-02-26T00:05:38;95054.13;;;9.64;100.00
11810;BME280;5962;41.566;23.734;2024-02-26T00:08:06;95059.06;;;9.44;100.00
11810;BME280;5962;41.566;23.734;2024-02-26T00:10:34;95059.31;;;9.42;100.00
11810;BME280;5962;41.566;23.734;2024-02-26T00:13:02;95070.94;;;9.41;100.00
11810;BME280;5962;41.566;23.734;2024-02-26T00:15:32;95061.41;;;9.40;100.00
11810;BME280;5962;41.566;23.734;2024-02-26T00:18:01;95065.97;;;9.45;100.00
11810;BME280;5962;41.566;23.734;2024-02-26T00:20:30;95065.56;;;9.53;100.00
11810;BME280;5962;41.566;23.734;2024-02-26T00:22:58;95055.06;;;9.41;100.00
11810;BME280;5962;41.566;23.734;2024-02-26T00:25:26;95059.53;;;9.41;100.00
11810;BME280;5962;41.566;23.734;2024-02-26T00:27:54;95061.16;;;9.42;100.00
11810;BME280;5962;41.566;23.734;2024-02-26T00:30:22;95054.75;;;9.38;100.00
11810;BME280;5962;41.566;23.734;2024-02-26T00:32:51;95059.88;;;9.44;100.00
11810;BME280;5962;41.566;23.734;2024-02-26T00:35:19;95060.94;;;9.43;100.00
11810;BME280;5962;41.566;23.734;2024-02-26T00:37:48;95051.78;;;9.51;100.00
11810;BME280;5962;41.566;23.734;2024-02-26T00:40:16;95042.78;;;9.52;100.00
11810;BME280;5962;41.566;23.734;2024-02-26T00:42:44;95031.75;;;9.55;100.00
11810;BME280;5962;41.566;23.734;2024-02-26T00:45:12;95027.84;;;9.57;100.00
11810;BME280;5962;41.566;23.734;2024-02-26T00:47:40;95027.66;;;9.64;100.00
11810;BME280;5962;41.566;23.734;2024-02-26T00:50:10;95034.69;;;9.58;100.00
11810;BME280;5962;41.566;23.734;2024-02-26T00:52:38;95029.03;;;9.50;100.00
11810;BME280;5962;41.566;23.734;2024-02-26T00:55:07;95037.03;;;9.55;100.00
11810;BME280;5962;41.566;23.734;2024-02-26T00:57:35;95017.25;;;9.57;100.00
11810;BME280;5962;41.566;23.734;2024-02-26T01:00:04;95016.44;;;9.57;100.00
11810;BME280;5962;41.566;23.734;2024-02-26T01:02:35;95005.06;;;9.56;100.00
11810;BME280;5962;41.566;23.734;2024-02-26T01:05:04;95002.91;;;9.53;100.00
11810;BME280;5962;41.566;23.734;2024-02-26T01:07:34;94996.81;;;9.53;100.00
11810;BME280;5962;41.566;23.734;2024-02-26T01:10:03;94989.75;;;9.58;100.00
11810;BME280;5962;41.566;23.734;2024-02-26T01:12:32;94996.31;;;9.56;100.00
11810;BME280;5962;41.566;23.734;2024-02-26T01:15:00;94993.22;;;9.59;100.00
11810;BME280;5962;41.566;23.734;2024-02-26T01:17:29;94983.41;;;9.59;100.00
11810;BME280;5962;41.566;23.734;2024-02-26T01:19:57;94975.31;;;9.66;100.00
11810;BME280;5962;41.566;23.734;2024-02-26T01:22:25;94977.25;;;9.70;100.00
11810;BME280;5962;41.566;23.734;2024-02-26T01:24:55;94977.72;;;9.67;100.00
11810;BME280;5962;41.566;23.734;2024-02-26T01:27:23;94970.66;;;9.73;100.00
11810;BME280;5962;41.566;23.734;2024-02-26T01:29:53;94966.72;;;9.75;100.00
11810;BME280;5962;41.566;23.734;2024-02-26T01:32:21;94963.59;;;9.78;100.00
11810;BME280;5962;41.566;23.734;2024-02-26T01:34:49;94960.16;;;9.78;100.00
11810;BME280;5962;41.566;23.734;2024-02-26T01:37:17;94948.28;;;9.80;100.00
11810;BME280;5962;41.566;23.734;2024-02-26T01:39:45;94952.41;;;9.71;100.00
11810;BME280;5962;41.566;23.734;2024-02-26T01:42:14;94964.25;;;9.69;100.00
11810;BME280;5962;41.566;23.734;2024-02-26T01:44:42;94958.41;;;9.67;100.00
11810;BME280;5962;41.566;23.734;2024-02-26T01:47:11;94960.25;;;9.66;100.00
11810;BME280;5962;41.566;23.734;2024-02-26T01:49:40;94960.50;;;9.65;100.00
11810;BME280;5962;41.566;23.734;2024-02-26T01:52:09;94967.38;;;9.66;100.00
11810;BME280;5962;41.566;23.734;2024-02-26T01:54:39;94972.19;;;9.69;100.00
11810;BME280;5962;41.566;23.734;2024-02-26T01:57:08;94970.66;;;9.73;100.00
11810;BME280;5962;41.566;23.734;2024-02-26T01:59:39;94970.09;;;9.71;100.00
11810;BME280;5962;41.566;23.734;2024-02-26T02:02:08;94968.31;;;9.76;100.00
11810;BME280;5962;41.566;23.734;2024-02-26T02:04:38;94965.13;;;9.74;100.00
11810;BME280;5962;41.566;23.734;2024-02-26T02:07:07;94961.44;;;9.75;100.00
11810;BME280;5962;41.566;23.734;2024-02-26T02:09:35;94962.00;;;9.77;100.00
11810;BME280;5962;41.566;23.734;2024-02-26T02:12:03;94959.66;;;9.81;100.00
11810;BME280;5962;41.566;23.734;2024-02-26T02:14:32;94962.56;;;9.79;100.00
11810;BME280;5962;41.566;23.734;2024-02-26T02:17:01;94960.00;;;9.84;100.00
11810;BME280;5962;41.566;23.734;2024-02-26T02:19:29;94955.75;;;9.67;100.00
11810;BME280;5962;41.566;23.734;2024-02-26T02:21:58;94952.19;;;9.56;100.00
11810;BME280;5962;41.566;23.734;2024-02-26T02:24:26;94943.94;;;9.53;100.00
11810;BME280;5962;41.566;23.734;2024-02-26T02:26:55;94946.75;;;9.46;100.00
11810;BME280;5962;41.566;23.734;2024-02-26T02:29:23;94947.59;;;9.31;100.00
11810;BME280;5962;41.566;23.734;2024-02-26T02:31:51;94943.00;;;9.26;100.00
11810;BME280;5962;41.566;23.734;2024-02-26T02:34:19;94946.78;;;9.30;100.00
11810;BME280;5962;41.566;23.734;2024-02-26T02:36:49;94946.78;;;9.30;100.00
11810;BME280;5962;41.566;23.734;2024-02-26T02:39:19;94945.16;;;9.29;100.00
11810;BME280;5962;41.566;23.734;2024-02-26T02:41:47;94947.03;;;9.29;100.00
11810;BME280;5962;41.566;23.734;2024-02-26T02:44:15;94946.53;;;9.32;100.00
11810;BME280;5962;41.566;23.734;2024-02-26T02:46:43;94949.88;;;9.27;100.00
11810;BME280;5962;41.566;23.734;2024-02-26T02:49:11;94950.72;;;9.28;100.00
11810;BME280;5962;41.566;23.734;2024-02-26T02:51:39;94955.75;;;9.29;100.00
11810;BME280;5962;41.566;23.734;2024-02-26T02:54:07;94944.69;;;9.32;100.00
11810;BME280;5962;41.566;23.734;2024-02-26T02:56:36;94940.84;;;9.39;100.00
11810;BME280;5962;41.566;23.734;2024-02-26T02:59:04;94941.41;;;9.41;100.00
11810;BME280;5962;41.566;23.734;2024-02-26T03:01:32;94932.44;;;9.42;100.00
11810;BME280;5962;41.566;23.734;2024-02-26T03:04:00;94936.91;;;9.42;100.00
11810;BME280;5962;41.566;23.734;2024-02-26T03:06:28;94938.19;;;9.39;100.00
11810;BME280;5962;41.566;23.734;2024-02-26T03:08:56;94931.06;;;9.40;100.00
11810;BME280;5962;41.566;23.734;2024-02-26T03:11:24;94930.09;;;9.46;100.00
11810;BME280;5962;41.566;23.734;2024-02-26T03:13:54;94920.81;;;9.43;100.00
11810;BME280;5962;41.566;23.734;2024-02-26T03:16:22;94917.06;;;9.39;100.00
11810;BME280;5962;41.566;23.734;2024-02-26T03:18:50;94917.84;;;9.40;100.00
11810;BME280;5962;41.566;23.734;2024-02-26T03:21:18;94918.09;;;9.38;100.00
11810;BME280;5962;41.566;23.734;2024-02-26T03:23:47;94921.53;;;9.39;100.00
11810;BME280;5962;41.566;23.734;2024-02-26T03:26:15;94921.28;;;9.40;100.00
11810;BME280;5962;41.566;23.734;2024-02-26T03:28:43;94919.44;;;9.41;100.00
11810;BME280;5962;41.566;23.734;2024-02-26T03:31:12;94923.47;;;9.43;100.00
11810;BME280;5962;41.566;23.734;2024-02-26T03:33:40;94911.09;;;9.49;100.00
11810;BME280;5962;41.566;23.734;2024-02-26T03:36:08;94910.84;;;9.50;100.00
11810;BME280;5962;41.566;23.734;2024-02-26T03:38:37;94904.09;;;9.59;100.00
11810;BME280;5962;41.566;23.734;2024-02-26T03:41:05;94900.66;;;9.59;100.00
11810;BME280;5962;41.566;23.734;2024-02-26T03:43:35;94901.09;;;9.51;100.00
11810;BME280;5962;41.566;23.734;2024-02-26T03:46:03;94905.56;;;9.50;100.00
11810;BME280;5962;41.566;23.734;2024-02-26T03:48:32;94909.50;;;9.48;100.00
11810;BME280;5962;41.566;23.734;2024-02-26T03:51:01;94906.56;;;9.44;100.00
11810;BME280;5962;41.566;23.734;2024-02-26T03:53:28;94906.56;;;9.44;100.00
11810;BME280;5962;41.566;23.734;2024-02-26T03:55:56;94907.59;;;9.43;100.00
11810;BME280;5962;41.566;23.734;2024-02-26T03:58:24;94912.88;;;9.43;100.00
11810;BME280;5962;41.566;23.734;2024-02-26T04:00:52;94900.94;;;9.41;100.00
11810;BME280;5962;41.566;23.734;2024-02-26T04:03:20;94909.44;;;9.43;100.00
11810;BME280;5962;41.566;23.734;2024-02-26T04:05:50;94908.09;;;9.40;100.00
11810;BME280;5962;41.566;23.734;2024-02-26T04:08:18;94915.44;;;9.38;100.00
11810;BME280;5962;41.566;23.734;2024-02-26T04:10:46;94919.22;;;9.42;100.00
11810;BME280;5962;41.566;23.734;2024-02-26T04:13:14;94911.19;;;9.37;100.00
11810;BME280;5962;41.566;23.734;2024-02-26T04:15:42;94911.06;;;9.28;100.00
11810;BME280;5962;41.566;23.734;2024-02-26T04:18:10;94908.16;;;9.29;100.00
11810;BME280;5962;41.566;23.734;2024-02-26T04:20:38;94906.00;;;9.26;100.00
11810;BME280;5962;41.566;23.734;2024-02-26T04:23:09;94908.34;;;9.23;100.00
11810;BME280;5962;41.566;23.734;2024-02-26T04:25:37;94903.00;;;9.18;100.00
11810;BME280;5962;41.566;23.734;2024-02-26T04:28:05;94899.78;;;9.16;100.00
11810;BME280;5962;41.566;23.734;2024-02-26T04:30:33;94897.06;;;9.11;100.00
11810;BME280;5962;41.566;23.734;2024-02-26T04:33:01;94896.75;;;9.07;100.00
11810;BME280;5962;41.566;23.734;2024-02-26T04:35:29;94907.88;;;9.09;100.00
11810;BME280;5962;41.566;23.734;2024-02-26T04:37:57;94899.16;;;9.09;100.00
11810;BME280;5962;41.566;23.734;2024-02-26T04:40:27;94908.19;;;9.13;100.00
11810;BME280;5962;41.566;23.734;2024-02-26T04:42:55;94908.75;;;9.15;100.00
11810;BME280;5962;41.566;23.734;2024-02-26T04:45:23;94911.41;;;9.15;100.00
11810;BME280;5962;41.566;23.734;2024-02-26T04:47:52;94910.09;;;9.17;100.00
11810;BME280;5962;41.566;23.734;2024-02-26T04:50:20;94915.66;;;9.16;100.00
11810;BME280;5962;41.566;23.734;2024-02-26T04:52:47;94912.75;;;9.17;100.00
11810;BME280;5962;41.566;23.734;2024-02-26T04:55:16;94917.25;;;9.17;100.00
11810;BME280;5962;41.566;23.734;2024-02-26T04:57:45;94911.97;;;9.17;100.00
11810;BME280;5962;41.566;23.734;2024-02-26T05:00:14;94911.88;;;9.12;100.00
11810;BME280;5962;41.566;23.734;2024-02-26T05:02:42;94915.88;;;9.14;100.00
11810;BME280;5962;41.566;23.734;2024-02-26T05:05:10;94912.19;;;9.15;100.00
11810;BME280;5962;41.566;23.734;2024-02-26T05:07:40;94919.56;;;9.13;100.00
11810;BME280;5962;41.566;23.734;2024-02-26T05:10:08;94917.72;;;9.14;100.00
11810;BME280;5962;41.566;23.734;2024-02-26T05:12:36;94917.16;;;9.12;100.00
11810;BME280;5962;41.566;23.734;2024-02-26T05:15:07;94915.13;;;9.19;100.00
11810;BME280;5962;41.566;23.734;2024-02-26T05:17:35;94914.34;;;9.18;100.00
11810;BME280;5962;41.566;23.734;2024-02-26T05:20:04;94913.56;;;9.18;100.00
11810;BME280;5962;41.566;23.734;2024-02-26T05:22:34;94915.66;;;9.16;100.00
11810;BME280;5962;41.566;23.734;2024-02-26T05:25:02;94916.44;;;9.16;100.00
11810;BME280;5962;41.566;23.734;2024-02-26T05:27:30;94917.78;;;9.19;100.00
11810;BME280;5962;41.566;23.734;2024-02-26T05:29:58;94915.13;;;9.19;100.00
11810;BME280;5962;41.566;23.734;2024-02-26T05:32:28;94915.97;;;9.19;100.00
11810;BME280;5962;41.566;23.734;2024-02-26T05:34:56;94911.53;;;9.25;100.00
11810;BME280;5962;41.566;23.734;2024-02-26T05:37:24;94904.75;;;9.29;100.00
11810;BME280;5962;41.566;23.734;2024-02-26T05:39:52;94904.31;;;9.36;100.00
11810;BME280;5962;41.566;23.734;2024-02-26T05:42:20;94911.19;;;9.37;100.00
11810;BME280;5962;41.566;23.734;2024-02-26T05:44:48;94915.38;;;9.33;100.00
11810;BME280;5962;41.566;23.734;2024-02-26T05:47:16;94912.72;;;9.33;100.00
11810;BME280;5962;41.566;23.734;2024-02-26T05:49:46;94913.59;;;9.39;100.00
11810;BME280;5962;41.566;23.734;2024-02-26T05:52:15;94916.56;;;9.42;100.00
11810;BME280;5962;41.566;23.734;2024-02-26T05:54:43;94914.72;;;9.43;100.00
11810;BME280;5962;41.566;23.734;2024-02-26T05:57:11;94921.69;;;9.49;100.00
11810;BME280;5962;41.566;23.734;2024-02-26T05:59:39;94920.94;;;9.53;100.00
11810;BME280;5962;41.566;23.734;2024-02-26T06:02:07;94923.34;;;9.55;100.00
11810;BME280;5962;41.566;23.734;2024-02-26T06:04:35;94924.72;;;9.57;100.00
11810;BME280;5962;41.566;23.734;2024-02-26T06:07:05;94929.81;;;9.64;100.00
11810;BME280;5962;41.566;23.734;2024-02-26T06:09:33;94923.50;;;9.65;100.00
11810;BME280;5962;41.566;23.734;2024-02-26T06:12:01;94925.41;;;9.69;100.00
11810;BME280;5962;41.566;23.734;2024-02-26T06:14:29;94925.16;;;9.71;100.00
11810;BME280;5962;41.566;23.734;2024-02-26T06:16:57;94930.34;;;9.82;100.00
11810;BME280;5962;41.566;23.734;2024-02-26T06:19:25;94938.25;;;9.82;100.00
11810;BME280;5962;41.566;23.734;2024-02-26T06:21:53;94935.63;;;9.82;100.00
11810;BME280;5962;41.566;23.734;2024-02-26T06:24:23;94937.03;;;9.90;100.00
11810;BME280;5962;41.566;23.734;2024-02-26T06:26:51;94927.81;;;9.92;100.00
11810;BME280;5962;41.566;23.734;2024-02-26T06:29:19;94929.47;;;9.98;100.00
11810;BME280;5962;41.566;23.734;2024-02-26T06:31:47;94935.41;;;10.05;100.00
11810;BME280;5962;41.566;23.734;2024-02-26T06:34:17;94938.03;;;10.05;100.00
11810;BME280;5962;41.566;23.734;2024-02-26T06:36:45;94937.31;;;10.10;100.00
11810;BME280;5962;41.566;23.734;2024-02-26T06:39:13;94945.31;;;10.15;100.00
11810;BME280;5962;41.566;23.734;2024-02-26T06:41:44;94948.53;;;10.17;100.00
11810;BME280;5962;41.566;23.734;2024-02-26T06:44:13;94955.44;;;10.23;100.00
11810;BME280;5962;41.566;23.734;2024-02-26T06:46:41;94947.56;;;10.28;100.00
11810;BME280;5962;41.566;23.734;2024-02-26T06:49:09;94953.78;;;10.38;100.00
11810;BME280;5962;41.566;23.734;2024-02-26T06:51:37;94950.63;;;10.41;100.00
11810;BME280;5962;41.566;23.734;2024-02-26T06:54:05;94953.91;;;10.48;100.00
11810;BME280;5962;41.566;23.734;2024-02-26T06:56:33;94953.69;;;10.54;100.00
11810;BME280;5962;41.566;23.734;2024-02-26T06:59:02;94951.44;;;10.68;100.00
11810;BME280;5962;41.566;23.734;2024-02-26T07:01:30;94943.00;;;10.71;100.00
11810;BME280;5962;41.566;23.734;2024-02-26T07:03:58;94951.25;;;10.74;100.00
11810;BME280;5962;41.566;23.734;2024-02-26T07:06:27;94955.91;;;10.89;100.00
11810;BME280;5962;41.566;23.734;2024-02-26T07:08:55;94953.81;;;10.91;100.00
11810;BME280;5962;41.566;23.734;2024-02-26T07:11:23;94949.06;;;10.98;100.00
11810;BME280;5962;41.566;23.734;2024-02-26T07:13:51;94946.50;;;11.08;100.00
11810;BME280;5962;41.566;23.734;2024-02-26T07:16:20;94947.88;;;11.10;100.00
11810;BME280;5962;41.566;23.734;2024-02-26T07:18:48;94950.09;;;11.23;100.00
11810;BME280;5962;41.566;23.734;2024-02-26T07:21:16;94949.22;;;11.13;100.00
11810;BME280;5962;41.566;23.734;2024-02-26T07:23:44;94961.75;;;11.22;100.00
11810;BME280;5962;41.566;23.734;2024-02-26T07:26:12;94952.75;;;11.23;100.00
11810;BME280;5962;41.566;23.734;2024-02-26T07:28:41;94949.66;;;11.36;100.00
11810;BME280;5962;41.566;23.734;2024-02-26T07:31:09;94951.06;;;11.48;100.00
11810;BME280;5962;41.566;23.734;2024-02-26T07:33:38;94954.13;;;11.62;100.00
11810;BME280;5962;41.566;23.734;2024-02-26T07:36:06;94961.34;;;11.71;100.00
11810;BME280;5962;41.566;23.734;2024-02-26T07:38:34;94956.09;;;11.86;100.00
11810;BME280;5962;41.566;23.734;2024-02-26T07:41:07;94948.50;;;12.00;100.00
11810;BME280;5962;41.566;23.734;2024-02-26T07:43:35;94950.16;;;12.20;100.00
11810;BME280;5962;41.566;23.734;2024-02-26T07:46:03;94948.91;;;12.33;100.00
11810;BME280;5962;41.566;23.734;2024-02-26T07:48:31;94957.69;;;12.48;100.00
11810;BME280;5962;41.566;23.734;2024-02-26T07:51:00;94951.66;;;12.68;100.00
11810;BME280;5962;41.566;23.734;2024-02-26T07:53:30;94966.03;;;12.77;100.00
11810;BME280;5962;41.566;23.734;2024-02-26T07:55:58;94967.91;;;12.81;100.00
11810;BME280;5962;41.566;23.734;2024-02-26T07:58:26;94959.44;;;12.89;100.00
11810;BME280;5962;41.566;23.734;2024-02-26T08:00:54;94952.53;;;13.03;100.00
11810;BME280;5962;41.566;23.734;2024-02-26T08:03:22;94953.34;;;13.14;100.00
11810;BME280;5962;41.566;23.734;2024-02-26T08:05:51;94953.59;;;13.27;100.00
11810;BME280;5962;41.566;23.734;2024-02-26T08:08:20;94952.03;;;13.36;100.00
11810;BME280;5962;41.566;23.734;2024-02-26T08:10:48;94951.22;;;13.45;100.00
11810;BME280;5962;41.566;23.734;2024-02-26T08:13:16;94948.81;;;13.54;100.00
11810;BME280;5962;41.566;23.734;2024-02-26T08:15:44;94952.00;;;13.66;100.00
11810;BME280;5962;41.566;23.734;2024-02-26T08:18:12;94956.50;;;13.75;100.00
11810;BME280;5962;41.566;23.734;2024-02-26T08:20:40;94958.38;;;13.70;100.00
11810;BME280;5962;41.566;23.734;2024-02-26T08:23:08;94960.50;;;13.68;100.00
11810;BME280;5962;41.566;23.734;2024-02-26T08:25:38;94954.66;;;13.61;100.00
11810;BME280;5962;41.566;23.734;2024-02-26T08:28:06;94958.94;;;13.62;100.00
11810;BME280;5962;41.566;23.734;2024-02-26T08:30:34;94958.94;;;13.67;100.00
11810;BME280;5962;41.566;23.734;2024-02-26T08:33:02;94954.13;;;13.74;100.00
11810;BME280;5962;41.566;23.734;2024-02-26T08:35:31;94958.69;;;13.58;100.00
11810;BME280;5962;41.566;23.734;2024-02-26T08:37:59;94950.94;;;13.67;100.00
11810;BME280;5962;41.566;23.734;2024-02-26T08:40:27;94949.31;;;13.71;100.00
11810;BME280;5962;41.566;23.734;2024-02-26T08:42:56;94951.75;;;13.57;100.00
11810;BME280;5962;41.566;23.734;2024-02-26T08:45:24;94944.84;;;13.56;100.00
11810;BME280;5962;41.566;23.734;2024-02-26T08:47:55;94945.34;;;13.73;100.00
11810;BME280;5962;41.566;23.734;2024-02-26T08:50:25;94954.63;;;13.86;100.00
11810;BME280;5962;41.566;23.734;2024-02-26T08:52:53;94941.28;;;13.96;100.00
11810;BME280;5962;41.566;23.734;2024-02-26T08:55:21;94949.03;;;13.97;100.00
11810;BME280;5962;41.566;23.734;2024-02-26T08:57:49;94945.81;;;13.90;100.00
11810;BME280;5962;41.566;23.734;2024-02-26T09:00:19;94950.09;;;13.91;100.00
11810;BME280;5962;41.566;23.734;2024-02-26T09:02:47;94952.22;;;13.99;100.00
11810;BME280;5962;41.566;23.734;2024-02-26T09:05:16;94942.38;;;13.90;100.00
11810;BME280;5962;41.566;23.734;2024-02-26T09:07:44;94950.88;;;13.97;100.00
11810;BME280;5962;41.566;23.734;2024-02-26T09:10:13;94946.34;;;14.12;100.00
11810;BME280;5962;41.566;23.734;2024-02-26T09:12:41;94943.59;;;14.37;100.00
11810;BME280;5962;41.566;23.734;2024-02-26T09:15:09;94945.06;;;14.63;100.00
11810;BME280;5962;41.566;23.734;2024-02-26T09:17:39;94937.75;;;14.83;100.00
11810;BME280;5962;41.566;23.734;2024-02-26T09:20:07;94945.53;;;14.70;100.00
11810;BME280;5962;41.566;23.734;2024-02-26T09:22:36;94942.44;;;14.53;100.00
11810;BME280;5962;41.566;23.734;2024-02-26T09:25:06;94937.66;;;14.45;100.00
11810;BME280;5962;41.566;23.734;2024-02-26T09:27:34;94935.41;;;14.72;100.00
11810;BME280;5962;41.566;23.734;2024-02-26T09:30:03;94935.31;;;14.87;100.00
11810;BME280;5962;41.566;23.734;2024-02-26T09:32:32;94927.25;;;14.97;100.00
11810;BME280;5962;41.566;23.734;2024-02-26T09:35:01;94922.28;;;14.85;100.00
11810;BME280;5962;41.566;23.734;2024-02-26T09:37:31;94931.25;;;14.94;100.00
11810;BME280;5962;41.566;23.734;2024-02-26T09:39:59;94933.28;;;15.12;100.00
11810;BME280;5962;41.566;23.734;2024-02-26T09:42:27;94932.69;;;15.20;100.00
11810;BME280;5962;41.566;23.734;2024-02-26T09:45:00;94932.38;;;15.21;100.00
11810;BME280;5962;41.566;23.734;2024-02-26T09:47:31;94932.78;;;15.43;100.00
11810;BME280;5962;41.566;23.734;2024-02-26T09:50:01;94935.13;;;15.50;100.00
11810;BME280;5962;41.566;23.734;2024-02-26T09:52:31;94924.88;;;15.33;100.00
11810;BME280;5962;41.566;23.734;2024-02-26T09:55:01;94927.09;;;15.16;100.00
11810;BME280;5962;41.566;23.734;2024-02-26T09:57:30;94917.97;;;15.27;100.00
11810;BME280;5962;41.566;23.734;2024-02-26T09:59:59;94923.13;;;15.14;100.00
11810;BME280;5962;41.566;23.734;2024-02-26T10:02:30;94915.44;;;15.07;100.00
11810;BME280;5962;41.566;23.734;2024-02-26T10:05:00;94902.44;;;14.96;100.00
11810;BME280;5962;41.566;23.734;2024-02-26T10:07:32;94907.25;;;14.94;100.00
11810;BME280;5962;41.566;23.734;2024-02-26T10:10:01;94905.75;;;15.16;100.00
11810;BME280;5962;41.566;23.734;2024-02-26T10:12:29;94905.88;;;15.40;100.00
11810;BME280;5962;41.566;23.734;2024-02-26T10:14:58;94896.69;;;15.51;100.00
11810;BME280;5962;41.566;23.734;2024-02-26T10:17:26;94901.31;;;15.69;100.00
11810;BME280;5962;41.566;23.734;2024-02-26T10:19:54;94894.91;;;15.93;100.00
11810;BME280;5962;41.566;23.734;2024-02-26T10:22:39;94903.50;;;16.13;100.00
11810;BME280;5962;41.566;23.734;2024-02-26T10:25:07;94893.31;;;16.15;100.00
11810;BME280;5962;41.566;23.734;2024-02-26T10:27:36;94894.41;;;16.14;100.00
11810;BME280;5962;41.566;23.734;2024-02-26T10:30:05;94890.47;;;16.07;100.00
11810;BME280;5962;41.566;23.734;2024-02-26T10:32:44;94888.63;;;15.84;100.00
11810;BME280;5962;41.566;23.734;2024-02-26T10:35:13;94889.94;;;15.82;100.00
11810;BME280;5962;41.566;23.734;2024-02-26T10:37:42;94887.41;;;15.95;100.00
11810;BME280;5962;41.566;23.734;2024-02-26T10:40:11;94890.59;;;16.20;100.00
11810;BME280;5962;41.566;23.734;2024-02-26T10:42:39;94887.56;;;16.50;100.00
11810;BME280;5962;41.566;23.734;2024-02-26T10:45:09;94879.78;;;16.72;100.00
11810;BME280;5962;41.566;23.734;2024-02-26T10:47:37;94873.06;;;16.75;100.00
11810;BME280;5962;41.566;23.734;2024-02-26T10:50:06;94874.66;;;16.76;100.00
11810;BME280;5962;41.566;23.734;2024-02-26T10:52:35;94873.41;;;16.87;100.00
11810;BME280;5962;41.566;23.734;2024-02-26T10:55:05;94870.94;;;17.08;100.00
11810;BME280;5962;41.566;23.734;2024-02-26T10:57:36;94874.75;;;17.21;99.60
11810;BME280;5962;41.566;23.734;2024-02-26T11:00:10;94865.09;;;17.06;99.55
11810;BME280;5962;41.566;23.734;2024-02-26T11:02:42;94874.78;;;17.02;100.00
11810;BME280;5962;41.566;23.734;2024-02-26T11:05:12;94872.53;;;16.91;100.00
11810;BME280;5962;41.566;23.734;2024-02-26T11:07:41;94870.22;;;16.85;100.00
11810;BME280;5962;41.566;23.734;2024-02-26T11:10:11;94866.41;;;16.91;100.00
11810;BME280;5962;41.566;23.734;2024-02-26T11:12:41;94868.03;;;17.05;100.00
11810;BME280;5962;41.566;23.734;2024-02-26T11:15:09;94868.81;;;17.24;100.00
11810;BME280;5962;41.566;23.734;2024-02-26T11:17:38;94868.28;;;17.40;100.00
11810;BME280;5962;41.566;23.734;2024-02-26T11:20:09;94857.19;;;17.47;98.44
11810;BME280;5962;41.566;23.734;2024-02-26T11:22:39;94863.25;;;17.52;96.23
11810;BME280;5962;41.566;23.734;2024-02-26T11:25:07;94860.38;;;17.49;96.89
11810;BME280;5962;41.566;23.734;2024-02-26T11:27:43;94858.59;;;17.44;97.14
11810;BME280;5962;41.566;23.734;2024-02-26T11:30:13;94844.81;;;17.51;96.03
11810;BME280;5962;41.566;23.734;2024-02-26T11:32:44;94854.34;;;17.57;91.23
11810;BME280;5962;41.566;23.734;2024-02-26T11:35:14;94852.66;;;17.47;58.43
11810;BME280;5962;41.566;23.734;2024-02-26T11:37:52;94850.75;;;17.48;52.72
11810;BME280;5962;41.566;23.734;2024-02-26T11:40:20;94852.28;;;17.54;52.34
11810;BME280;5962;41.566;23.734;2024-02-26T11:42:51;94851.00;;;17.65;50.05
11810;BME280;5962;41.566;23.734;2024-02-26T11:45:47;94854.69;;;17.69;49.66
11810;BME280;5962;41.566;23.734;2024-02-26T11:48:19;94859.72;;;17.70;48.39
11810;BME280;5962;41.566;23.734;2024-02-26T11:50:48;94849.59;;;17.54;48.36
11810;BME280;5962;41.566;23.734;2024-02-26T11:53:24;94844.66;;;17.29;48.33
11810;BME280;5962;41.566;23.734;2024-02-26T11:56:21;94839.38;;;17.24;49.26
11810;BME280;5962;41.566;23.734;2024-02-26T11:58:57;94846.25;;;17.11;50.23
11810;BME280;5962;41.566;23.734;2024-02-26T12:01:39;94842.69;;;17.16;50.27
11810;BME280;5962;41.566;23.734;2024-02-26T12:04:09;94840.19;;;17.06;47.49
11810;BME280;5962;41.566;23.734;2024-02-26T12:06:43;94841.25;;;16.92;48.34
11810;BME280;5962;41.566;23.734;2024-02-26T12:09:12;94839.28;;;16.97;48.71
11810;BME280;5962;41.566;23.734;2024-02-26T12:11:42;94828.63;;;16.92;48.58
11810;BME280;5962;41.566;23.734;2024-02-26T12:14:11;94826.06;;;16.87;47.61
11810;BME280;5962;41.566;23.734;2024-02-26T12:16:40;94826.47;;;16.94;46.64
11810;BME280;5962;41.566;23.734;2024-02-26T12:19:09;94821.97;;;17.08;46.53
11810;BME280;5962;41.566;23.734;2024-02-26T12:21:37;94826.06;;;17.19;45.80
11810;BME280;5962;41.566;23.734;2024-02-26T12:24:13;94819.69;;;17.33;45.25
11810;BME280;5962;41.566;23.734;2024-02-26T12:26:42;94811.94;;;17.32;44.78
11810;BME280;5962;41.566;23.734;2024-02-26T12:29:12;94813.97;;;17.40;44.97
11810;BME280;5962;41.566;23.734;2024-02-26T12:31:40;94819.91;;;17.50;44.85
11810;BME280;5962;41.566;23.734;2024-02-26T12:34:09;94813.78;;;17.63;45.31
11810;BME280;5962;41.566;23.734;2024-02-26T12:36:37;94804.66;;;17.64;45.11
11810;BME280;5962;41.566;23.734;2024-02-26T12:39:07;94812.91;;;17.81;45.11
11810;BME280;5962;41.566;23.734;2024-02-26T12:41:37;94816.28;;;17.87;44.56
11810;BME280;5962;41.566;23.734;2024-02-26T12:44:07;94824.09;;;17.96;44.25
11810;BME280;5962;41.566;23.734;2024-02-26T12:46:37;94818.69;;;17.88;43.74
11810;BME280;5962;41.566;23.734;2024-02-26T12:49:05;94822.84;;;17.81;43.86
11810;BME280;5962;41.566;23.734;2024-02-26T12:51:34;94819.56;;;17.70;43.19
11810;BME280;5962;41.566;23.734;2024-02-26T12:54:02;94814.28;;;17.52;44.31
11810;BME280;5962;41.566;23.734;2024-02-26T12:56:30;94817.66;;;17.57;44.76
11810;BME280;5962;41.566;23.734;2024-02-26T12:58:59;94817.06;;;17.60;44.15
11810;BME280;5962;41.566;23.734;2024-02-26T13:01:27;94823.19;;;17.61;44.20
11810;BME280;5962;41.566;23.734;2024-02-26T13:03:58;94820.94;;;17.68;44.29
11810;BME280;5962;41.566;23.734;2024-02-26T13:06:27;94826.19;;;17.73;44.37